sensor_id;sensor_type;location;lat;lon;timestamp;temperature;humidity
913;DHT22;443;51.448;7.028;2022-09-09T00:00:13;20.30;81.30
913;DHT22;443;51.448;7.028;2022-09-09T00:02:42;20.30;80.80
913;DHT22;443;51.448;7.028;2022-09-09T00:05:16;20.20;80.60
913;DHT22;443;51.448;7.028;2022-09-09T00:07:47;20.40;81.30
913;DHT22;443;51.448;7.028;2022-09-09T00:10:21;20.40;81.30
913;DHT22;443;51.448;7.028;2022-09-09T00:12:57;20.40;81.20
913;DHT22;443;51.448;7.028;2022-09-09T00:15:34;20.40;82.00
913;DHT22;443;51.448;7.028;2022-09-09T00:18:10;20.40;81.40
913;DHT22;443;51.448;7.028;2022-09-09T00:20:45;20.30;80.80
913;DHT22;443;51.448;7.028;2022-09-09T00:23:22;20.20;81.10
913;DHT22;443;51.448;7.028;2022-09-09T00:25:59;20.20;81.90
913;DHT22;443;51.448;7.028;2022-09-09T00:28:32;20.30;81.40
913;DHT22;443;51.448;7.028;2022-09-09T00:31:08;20.30;80.90
913;DHT22;443;51.448;7.028;2022-09-09T00:33:38;20.40;81.70
913;DHT22;443;51.448;7.028;2022-09-09T00:36:12;20.40;81.20
913;DHT22;443;51.448;7.028;2022-09-09T00:38:43;20.40;81.30
913;DHT22;443;51.448;7.028;2022-09-09T00:41:17;20.20;81.40
913;DHT22;443;51.448;7.028;2022-09-09T00:43:53;20.40;82.30
913;DHT22;443;51.448;7.028;2022-09-09T00:46:47;20.40;81.50
913;DHT22;443;51.448;7.028;2022-09-09T00:49:27;20.30;81.30
913;DHT22;443;51.448;7.028;2022-09-09T00:52:03;20.40;81.80
913;DHT22;443;51.448;7.028;2022-09-09T00:54:40;20.50;81.30
913;DHT22;443;51.448;7.028;2022-09-09T00:57:18;20.40;81.30
913;DHT22;443;51.448;7.028;2022-09-09T00:59:52;20.40;80.70
913;DHT22;443;51.448;7.028;2022-09-09T01:02:27;20.50;82.00
913;DHT22;443;51.448;7.028;2022-09-09T01:04:58;20.50;81.00
913;DHT22;443;51.448;7.028;2022-09-09T01:07:28;20.40;81.30
913;DHT22;443;51.448;7.028;2022-09-09T01:09:56;20.40;81.30
913;DHT22;443;51.448;7.028;2022-09-09T01:12:28;20.50;81.50
913;DHT22;443;51.448;7.028;2022-09-09T01:15:04;20.50;81.30
913;DHT22;443;51.448;7.028;2022-09-09T01:17:37;20.50;81.90
913;DHT22;443;51.448;7.028;2022-09-09T01:20:10;20.40;81.10
913;DHT22;443;51.448;7.028;2022-09-09T01:22:47;20.50;81.70
913;DHT22;443;51.448;7.028;2022-09-09T01:28:24;20.40;81.40
913;DHT22;443;51.448;7.028;2022-09-09T01:30:51;20.40;81.50
913;DHT22;443;51.448;7.028;2022-09-09T01:33:19;20.50;81.50
913;DHT22;443;51.448;7.028;2022-09-09T01:35:49;20.50;81.50
913;DHT22;443;51.448;7.028;2022-09-09T01:38:20;20.50;81.80
913;DHT22;443;51.448;7.028;2022-09-09T01:40:48;20.40;81.80
913;DHT22;443;51.448;7.028;2022-09-09T01:43:17;20.40;81.90
913;DHT22;443;51.448;7.028;2022-09-09T01:45:48;20.40;81.70
913;DHT22;443;51.448;7.028;2022-09-09T01:48:16;20.40;81.50
913;DHT22;443;51.448;7.028;2022-09-09T01:50:45;20.40;81.80
913;DHT22;443;51.448;7.028;2022-09-09T01:53:12;20.40;81.80
913;DHT22;443;51.448;7.028;2022-09-09T01:55:40;20.30;81.30
913;DHT22;443;51.448;7.028;2022-09-09T01:58:17;20.40;81.50
913;DHT22;443;51.448;7.028;2022-09-09T02:00:55;20.40;81.60
913;DHT22;443;51.448;7.028;2022-09-09T02:03:25;20.40;81.00
913;DHT22;443;51.448;7.028;2022-09-09T02:06:00;20.40;81.90
913;DHT22;443;51.448;7.028;2022-09-09T02:08:36;20.40;81.60
913;DHT22;443;51.448;7.028;2022-09-09T02:11:08;20.30;81.20
913;DHT22;443;51.448;7.028;2022-09-09T02:13:38;20.30;81.20
913;DHT22;443;51.448;7.028;2022-09-09T02:16:08;20.30;81.80
913;DHT22;443;51.448;7.028;2022-09-09T02:18:41;20.40;81.50
913;DHT22;443;51.448;7.028;2022-09-09T02:21:10;20.40;81.50
913;DHT22;443;51.448;7.028;2022-09-09T02:23:38;20.50;81.70
913;DHT22;443;51.448;7.028;2022-09-09T02:26:07;20.50;81.00
913;DHT22;443;51.448;7.028;2022-09-09T02:28:37;20.50;81.40
913;DHT22;443;51.448;7.028;2022-09-09T02:31:06;20.50;81.60
913;DHT22;443;51.448;7.028;2022-09-09T02:33:38;20.40;81.30
913;DHT22;443;51.448;7.028;2022-09-09T02:36:08;20.40;81.30
913;DHT22;443;51.448;7.028;2022-09-09T02:38:38;20.50;81.40
913;DHT22;443;51.448;7.028;2022-09-09T02:41:07;20.50;81.90
913;DHT22;443;51.448;7.028;2022-09-09T02:43:34;20.50;81.40
913;DHT22;443;51.448;7.028;2022-09-09T02:46:12;20.50;81.00
913;DHT22;443;51.448;7.028;2022-09-09T02:48:51;20.40;81.60
913;DHT22;443;51.448;7.028;2022-09-09T02:51:24;20.30;81.40
913;DHT22;443;51.448;7.028;2022-09-09T02:53:59;20.40;81.40
913;DHT22;443;51.448;7.028;2022-09-09T02:56:31;20.40;82.00
913;DHT22;443;51.448;7.028;2022-09-09T02:59:02;20.40;81.40
913;DHT22;443;51.448;7.028;2022-09-09T03:01:30;20.40;81.90
913;DHT22;443;51.448;7.028;2022-09-09T03:03:58;20.40;81.60
913;DHT22;443;51.448;7.028;2022-09-09T03:06:25;20.40;82.00
913;DHT22;443;51.448;7.028;2022-09-09T03:08:52;20.40;82.00
913;DHT22;443;51.448;7.028;2022-09-09T03:11:19;20.50;82.20
913;DHT22;443;51.448;7.028;2022-09-09T03:13:46;20.50;82.20
913;DHT22;443;51.448;7.028;2022-09-09T03:16:14;20.50;82.00
913;DHT22;443;51.448;7.028;2022-09-09T03:18:42;20.50;81.80
913;DHT22;443;51.448;7.028;2022-09-09T03:21:11;20.50;81.50
913;DHT22;443;51.448;7.028;2022-09-09T03:23:38;20.50;81.90
913;DHT22;443;51.448;7.028;2022-09-09T03:26:05;20.50;81.80
913;DHT22;443;51.448;7.028;2022-09-09T03:28:31;20.50;81.60
913;DHT22;443;51.448;7.028;2022-09-09T03:30:59;20.40;81.80
913;DHT22;443;51.448;7.028;2022-09-09T03:33:26;20.50;82.50
913;DHT22;443;51.448;7.028;2022-09-09T03:35:55;20.40;80.70
913;DHT22;443;51.448;7.028;2022-09-09T03:38:22;20.30;82.00
913;DHT22;443;51.448;7.028;2022-09-09T03:40:50;20.30;82.00
913;DHT22;443;51.448;7.028;2022-09-09T03:43:20;20.30;81.70
913;DHT22;443;51.448;7.028;2022-09-09T03:45:47;20.30;81.10
913;DHT22;443;51.448;7.028;2022-09-09T03:48:15;20.40;82.60
913;DHT22;443;51.448;7.028;2022-09-09T03:50:44;20.50;82.10
913;DHT22;443;51.448;7.028;2022-09-09T03:53:14;20.50;81.20
913;DHT22;443;51.448;7.028;2022-09-09T03:55:44;20.50;81.60
913;DHT22;443;51.448;7.028;2022-09-09T03:58:11;20.40;79.90
913;DHT22;443;51.448;7.028;2022-09-09T04:00:38;20.40;81.30
913;DHT22;443;51.448;7.028;2022-09-09T04:03:07;20.50;81.70
913;DHT22;443;51.448;7.028;2022-09-09T04:05:34;20.50;81.00
913;DHT22;443;51.448;7.028;2022-09-09T04:08:05;20.40;81.10
913;DHT22;443;51.448;7.028;2022-09-09T04:10:33;20.30;81.70
913;DHT22;443;51.448;7.028;2022-09-09T04:13:02;20.40;82.10
913;DHT22;443;51.448;7.028;2022-09-09T04:15:29;20.50;82.30
913;DHT22;443;51.448;7.028;2022-09-09T04:17:56;20.50;81.70
913;DHT22;443;51.448;7.028;2022-09-09T04:20:23;20.60;82.20
913;DHT22;443;51.448;7.028;2022-09-09T04:22:50;20.60;81.50
913;DHT22;443;51.448;7.028;2022-09-09T04:25:17;20.50;81.70
913;DHT22;443;51.448;7.028;2022-09-09T04:27:45;20.40;81.30
913;DHT22;443;51.448;7.028;2022-09-09T04:30:13;20.40;81.00
913;DHT22;443;51.448;7.028;2022-09-09T04:32:39;20.40;81.60
913;DHT22;443;51.448;7.028;2022-09-09T04:35:07;20.50;81.70
913;DHT22;443;51.448;7.028;2022-09-09T04:37:34;20.50;81.80
913;DHT22;443;51.448;7.028;2022-09-09T04:40:01;20.40;81.20
913;DHT22;443;51.448;7.028;2022-09-09T04:42:28;20.40;81.30
913;DHT22;443;51.448;7.028;2022-09-09T04:44:56;20.40;81.70
913;DHT22;443;51.448;7.028;2022-09-09T04:47:23;20.40;81.60
913;DHT22;443;51.448;7.028;2022-09-09T04:49:50;20.30;80.90
913;DHT22;443;51.448;7.028;2022-09-09T04:52:17;20.30;82.20
913;DHT22;443;51.448;7.028;2022-09-09T04:54:44;20.40;81.90
913;DHT22;443;51.448;7.028;2022-09-09T04:57:11;20.50;81.80
913;DHT22;443;51.448;7.028;2022-09-09T04:59:38;20.50;81.10
913;DHT22;443;51.448;7.028;2022-09-09T05:02:07;20.50;81.90
913;DHT22;443;51.448;7.028;2022-09-09T05:04:33;20.40;81.60
913;DHT22;443;51.448;7.028;2022-09-09T05:07:00;20.40;81.10
913;DHT22;443;51.448;7.028;2022-09-09T05:09:27;20.30;81.40
913;DHT22;443;51.448;7.028;2022-09-09T05:11:54;20.30;81.70
913;DHT22;443;51.448;7.028;2022-09-09T05:14:21;20.20;80.10
913;DHT22;443;51.448;7.028;2022-09-09T05:16:48;20.20;80.80
913;DHT22;443;51.448;7.028;2022-09-09T05:19:16;20.40;82.30
913;DHT22;443;51.448;7.028;2022-09-09T05:21:45;20.40;81.70
913;DHT22;443;51.448;7.028;2022-09-09T05:24:11;20.30;81.40
913;DHT22;443;51.448;7.028;2022-09-09T05:26:38;20.30;82.30
913;DHT22;443;51.448;7.028;2022-09-09T05:29:05;20.40;82.10
913;DHT22;443;51.448;7.028;2022-09-09T05:31:32;20.40;81.60
913;DHT22;443;51.448;7.028;2022-09-09T05:33:59;20.50;82.20
913;DHT22;443;51.448;7.028;2022-09-09T05:36:27;20.40;81.30
913;DHT22;443;51.448;7.028;2022-09-09T05:38:54;20.50;81.80
913;DHT22;443;51.448;7.028;2022-09-09T05:41:20;20.40;81.80
913;DHT22;443;51.448;7.028;2022-09-09T05:43:48;20.40;82.10
913;DHT22;443;51.448;7.028;2022-09-09T05:46:16;20.50;81.60
913;DHT22;443;51.448;7.028;2022-09-09T05:48:45;20.40;81.30
913;DHT22;443;51.448;7.028;2022-09-09T05:51:14;20.50;81.30
913;DHT22;443;51.448;7.028;2022-09-09T05:53:44;20.50;82.00
913;DHT22;443;51.448;7.028;2022-09-09T05:56:13;20.40;81.70
913;DHT22;443;51.448;7.028;2022-09-09T05:58:41;20.50;81.40
913;DHT22;443;51.448;7.028;2022-09-09T06:01:11;20.50;81.40
913;DHT22;443;51.448;7.028;2022-09-09T06:03:40;20.50;81.20
913;DHT22;443;51.448;7.028;2022-09-09T06:06:09;20.60;81.00
913;DHT22;443;51.448;7.028;2022-09-09T06:08:38;20.50;80.80
913;DHT22;443;51.448;7.028;2022-09-09T06:11:08;20.50;80.70
913;DHT22;443;51.448;7.028;2022-09-09T06:13:36;20.50;81.80
913;DHT22;443;51.448;7.028;2022-09-09T06:16:04;20.60;81.20
913;DHT22;443;51.448;7.028;2022-09-09T06:18:32;20.60;80.90
913;DHT22;443;51.448;7.028;2022-09-09T06:21:01;20.50;80.60
913;DHT22;443;51.448;7.028;2022-09-09T06:23:30;20.50;81.30
913;DHT22;443;51.448;7.028;2022-09-09T06:26:05;20.50;81.40
913;DHT22;443;51.448;7.028;2022-09-09T06:28:35;20.50;81.30
913;DHT22;443;51.448;7.028;2022-09-09T06:31:04;20.60;81.60
913;DHT22;443;51.448;7.028;2022-09-09T06:33:31;20.60;81.70
913;DHT22;443;51.448;7.028;2022-09-09T06:36:00;20.40;80.30
913;DHT22;443;51.448;7.028;2022-09-09T06:38:27;20.40;81.00
913;DHT22;443;51.448;7.028;2022-09-09T06:40:55;20.50;81.30
913;DHT22;443;51.448;7.028;2022-09-09T06:43:23;20.50;81.20
913;DHT22;443;51.448;7.028;2022-09-09T06:45:56;20.50;81.30
913;DHT22;443;51.448;7.028;2022-09-09T06:48:24;20.60;81.80
913;DHT22;443;51.448;7.028;2022-09-09T06:51:00;20.60;81.20
913;DHT22;443;51.448;7.028;2022-09-09T06:53:27;20.60;80.00
913;DHT22;443;51.448;7.028;2022-09-09T06:55:54;20.60;81.20
913;DHT22;443;51.448;7.028;2022-09-09T06:58:21;20.50;80.00
913;DHT22;443;51.448;7.028;2022-09-09T07:00:48;20.40;81.00
913;DHT22;443;51.448;7.028;2022-09-09T07:03:17;20.50;80.30
913;DHT22;443;51.448;7.028;2022-09-09T07:05:44;20.50;80.70
913;DHT22;443;51.448;7.028;2022-09-09T07:08:19;20.50;79.40
913;DHT22;443;51.448;7.028;2022-09-09T07:10:46;20.60;80.00
913;DHT22;443;51.448;7.028;2022-09-09T07:13:13;20.60;79.70
913;DHT22;443;51.448;7.028;2022-09-09T07:15:41;20.50;79.70
913;DHT22;443;51.448;7.028;2022-09-09T07:18:07;20.50;80.70
913;DHT22;443;51.448;7.028;2022-09-09T07:20:36;20.50;79.10
913;DHT22;443;51.448;7.028;2022-09-09T07:23:03;20.50;78.90
913;DHT22;443;51.448;7.028;2022-09-09T07:25:30;20.60;79.50
913;DHT22;443;51.448;7.028;2022-09-09T07:27:57;20.50;79.50
913;DHT22;443;51.448;7.028;2022-09-09T07:30:23;20.50;79.30
913;DHT22;443;51.448;7.028;2022-09-09T07:32:51;20.50;78.90
913;DHT22;443;51.448;7.028;2022-09-09T07:35:18;20.50;79.10
913;DHT22;443;51.448;7.028;2022-09-09T07:37:47;20.50;79.80
913;DHT22;443;51.448;7.028;2022-09-09T07:40:13;20.60;80.50
913;DHT22;443;51.448;7.028;2022-09-09T07:42:40;20.60;78.90
913;DHT22;443;51.448;7.028;2022-09-09T07:45:07;20.60;80.80
913;DHT22;443;51.448;7.028;2022-09-09T07:47:34;20.70;80.90
913;DHT22;443;51.448;7.028;2022-09-09T07:50:01;20.70;80.10
913;DHT22;443;51.448;7.028;2022-09-09T07:52:28;20.70;79.20
913;DHT22;443;51.448;7.028;2022-09-09T07:54:56;20.70;79.50
913;DHT22;443;51.448;7.028;2022-09-09T07:57:22;20.70;80.00
913;DHT22;443;51.448;7.028;2022-09-09T07:59:49;20.70;78.50
913;DHT22;443;51.448;7.028;2022-09-09T08:02:17;20.70;78.20
913;DHT22;443;51.448;7.028;2022-09-09T08:04:43;20.80;79.70
913;DHT22;443;51.448;7.028;2022-09-09T08:07:10;20.70;78.40
913;DHT22;443;51.448;7.028;2022-09-09T08:09:37;20.70;79.50
913;DHT22;443;51.448;7.028;2022-09-09T08:12:05;20.70;79.30
913;DHT22;443;51.448;7.028;2022-09-09T08:14:34;20.70;77.70
913;DHT22;443;51.448;7.028;2022-09-09T08:17:01;20.60;79.40
913;DHT22;443;51.448;7.028;2022-09-09T08:19:27;20.70;79.10
913;DHT22;443;51.448;7.028;2022-09-09T08:21:55;20.70;79.20
913;DHT22;443;51.448;7.028;2022-09-09T08:24:22;20.70;79.20
913;DHT22;443;51.448;7.028;2022-09-09T08:26:49;20.70;79.10
913;DHT22;443;51.448;7.028;2022-09-09T08:29:17;20.70;79.50
913;DHT22;443;51.448;7.028;2022-09-09T08:31:45;20.70;78.30
913;DHT22;443;51.448;7.028;2022-09-09T08:34:13;20.70;79.10
913;DHT22;443;51.448;7.028;2022-09-09T08:36:42;20.70;78.90
913;DHT22;443;51.448;7.028;2022-09-09T08:39:10;20.80;78.90
913;DHT22;443;51.448;7.028;2022-09-09T08:45:20;20.80;78.90
913;DHT22;443;51.448;7.028;2022-09-09T08:48:02;20.80;79.50
913;DHT22;443;51.448;7.028;2022-09-09T08:50:35;20.80;79.00
913;DHT22;443;51.448;7.028;2022-09-09T08:53:08;20.80;78.10
913;DHT22;443;51.448;7.028;2022-09-09T08:55:40;20.80;78.70
913;DHT22;443;51.448;7.028;2022-09-09T08:58:12;20.80;76.80
913;DHT22;443;51.448;7.028;2022-09-09T09:00:49;20.80;77.50
913;DHT22;443;51.448;7.028;2022-09-09T09:03:24;20.70;78.00
913;DHT22;443;51.448;7.028;2022-09-09T09:06:00;20.80;76.20
913;DHT22;443;51.448;7.028;2022-09-09T09:08:35;20.80;77.30
913;DHT22;443;51.448;7.028;2022-09-09T09:11:06;20.90;78.40
913;DHT22;443;51.448;7.028;2022-09-09T09:13:37;20.90;78.30
913;DHT22;443;51.448;7.028;2022-09-09T09:16:17;20.90;76.40
913;DHT22;443;51.448;7.028;2022-09-09T09:18:46;20.90;78.10
913;DHT22;443;51.448;7.028;2022-09-09T09:21:15;20.90;77.40
913;DHT22;443;51.448;7.028;2022-09-09T09:23:48;20.90;75.10
913;DHT22;443;51.448;7.028;2022-09-09T09:26:18;20.90;78.60
913;DHT22;443;51.448;7.028;2022-09-09T09:28:45;20.90;74.20
913;DHT22;443;51.448;7.028;2022-09-09T09:31:13;20.90;76.20
913;DHT22;443;51.448;7.028;2022-09-09T09:33:46;20.90;75.10
913;DHT22;443;51.448;7.028;2022-09-09T09:36:15;20.90;78.70
913;DHT22;443;51.448;7.028;2022-09-09T09:38:52;21.00;78.70
913;DHT22;443;51.448;7.028;2022-09-09T09:41:29;21.00;77.20
913;DHT22;443;51.448;7.028;2022-09-09T09:43:56;21.00;77.60
913;DHT22;443;51.448;7.028;2022-09-09T09:46:26;20.90;74.90
913;DHT22;443;51.448;7.028;2022-09-09T09:48:57;20.90;76.10
913;DHT22;443;51.448;7.028;2022-09-09T09:51:25;20.90;73.70
913;DHT22;443;51.448;7.028;2022-09-09T09:53:53;21.00;78.10
913;DHT22;443;51.448;7.028;2022-09-09T09:56:27;21.00;77.50
913;DHT22;443;51.448;7.028;2022-09-09T09:58:55;20.90;73.80
913;DHT22;443;51.448;7.028;2022-09-09T10:01:25;20.90;75.50
913;DHT22;443;51.448;7.028;2022-09-09T10:03:54;21.00;77.50
913;DHT22;443;51.448;7.028;2022-09-09T10:06:32;20.90;75.50
913;DHT22;443;51.448;7.028;2022-09-09T10:09:01;21.00;77.70
913;DHT22;443;51.448;7.028;2022-09-09T10:11:41;21.00;76.50
913;DHT22;443;51.448;7.028;2022-09-09T10:14:18;21.00;74.70
913;DHT22;443;51.448;7.028;2022-09-09T10:16:59;21.00;76.80
913;DHT22;443;51.448;7.028;2022-09-09T10:19:30;21.00;77.10
913;DHT22;443;51.448;7.028;2022-09-09T10:22:14;21.00;74.30
913;DHT22;443;51.448;7.028;2022-09-09T10:25:16;21.00;76.20
913;DHT22;443;51.448;7.028;2022-09-09T10:27:54;21.10;76.40
913;DHT22;443;51.448;7.028;2022-09-09T10:30:27;21.10;78.10
913;DHT22;443;51.448;7.028;2022-09-09T10:33:07;21.10;78.10
913;DHT22;443;51.448;7.028;2022-09-09T10:35:40;21.00;74.50
913;DHT22;443;51.448;7.028;2022-09-09T10:38:17;21.10;76.60
913;DHT22;443;51.448;7.028;2022-09-09T10:41:00;21.10;76.20
913;DHT22;443;51.448;7.028;2022-09-09T10:43:45;21.10;77.00
913;DHT22;443;51.448;7.028;2022-09-09T10:46:17;21.10;73.10
913;DHT22;443;51.448;7.028;2022-09-09T10:49:01;21.10;77.60
913;DHT22;443;51.448;7.028;2022-09-09T10:51:38;21.10;77.60
913;DHT22;443;51.448;7.028;2022-09-09T10:54:15;21.10;77.60
913;DHT22;443;51.448;7.028;2022-09-09T10:56:51;21.10;74.10
913;DHT22;443;51.448;7.028;2022-09-09T10:59:24;21.10;75.70
913;DHT22;443;51.448;7.028;2022-09-09T11:01:55;21.10;75.60
913;DHT22;443;51.448;7.028;2022-09-09T11:04:28;21.10;76.70
913;DHT22;443;51.448;7.028;2022-09-09T11:06:58;21.10;76.40
913;DHT22;443;51.448;7.028;2022-09-09T11:09:32;21.10;78.50
913;DHT22;443;51.448;7.028;2022-09-09T11:12:03;21.10;77.50
913;DHT22;443;51.448;7.028;2022-09-09T11:14:32;21.10;77.70
913;DHT22;443;51.448;7.028;2022-09-09T11:17:06;21.10;75.70
913;DHT22;443;51.448;7.028;2022-09-09T11:19:38;21.10;77.50
913;DHT22;443;51.448;7.028;2022-09-09T11:22:07;21.10;77.70
913;DHT22;443;51.448;7.028;2022-09-09T11:24:43;21.10;74.20
913;DHT22;443;51.448;7.028;2022-09-09T11:27:13;21.20;78.20
913;DHT22;443;51.448;7.028;2022-09-09T11:35:56;21.20;77.20
913;DHT22;443;51.448;7.028;2022-09-09T11:38:27;21.20;77.70
913;DHT22;443;51.448;7.028;2022-09-09T11:40:56;21.20;75.60
913;DHT22;443;51.448;7.028;2022-09-09T11:43:29;21.20;75.50
913;DHT22;443;51.448;7.028;2022-09-09T11:45:59;21.20;77.60
913;DHT22;443;51.448;7.028;2022-09-09T11:48:32;21.20;76.90
913;DHT22;443;51.448;7.028;2022-09-09T11:51:05;21.20;77.60
913;DHT22;443;51.448;7.028;2022-09-09T11:53:34;21.20;78.50
913;DHT22;443;51.448;7.028;2022-09-09T11:56:04;21.20;78.20
913;DHT22;443;51.448;7.028;2022-09-09T11:58:37;21.20;78.30
913;DHT22;443;51.448;7.028;2022-09-09T12:01:25;21.20;77.90
913;DHT22;443;51.448;7.028;2022-09-09T12:04:16;21.20;78.40
913;DHT22;443;51.448;7.028;2022-09-09T12:06:46;21.20;79.10
913;DHT22;443;51.448;7.028;2022-09-09T12:09:23;21.20;78.50
913;DHT22;443;51.448;7.028;2022-09-09T12:11:51;21.20;78.50
913;DHT22;443;51.448;7.028;2022-09-09T12:14:21;21.20;78.70
913;DHT22;443;51.448;7.028;2022-09-09T12:16:49;21.20;78.70
913;DHT22;443;51.448;7.028;2022-09-09T12:19:23;21.30;78.80
913;DHT22;443;51.448;7.028;2022-09-09T12:21:58;21.20;78.80
913;DHT22;443;51.448;7.028;2022-09-09T12:24:34;21.20;78.50
913;DHT22;443;51.448;7.028;2022-09-09T12:27:11;21.20;78.60
913;DHT22;443;51.448;7.028;2022-09-09T12:29:47;21.20;78.20
913;DHT22;443;51.448;7.028;2022-09-09T12:32:19;21.20;78.30
913;DHT22;443;51.448;7.028;2022-09-09T12:34:48;21.20;79.10
913;DHT22;443;51.448;7.028;2022-09-09T12:37:26;21.20;79.40
913;DHT22;443;51.448;7.028;2022-09-09T12:39:56;21.20;78.70
913;DHT22;443;51.448;7.028;2022-09-09T12:42:23;21.20;78.70
913;DHT22;443;51.448;7.028;2022-09-09T12:44:55;21.20;78.80
913;DHT22;443;51.448;7.028;2022-09-09T12:47:25;21.20;79.40
913;DHT22;443;51.448;7.028;2022-09-09T12:49:53;21.30;78.90
913;DHT22;443;51.448;7.028;2022-09-09T12:52:27;21.30;78.40
913;DHT22;443;51.448;7.028;2022-09-09T12:54:56;21.30;78.40
913;DHT22;443;51.448;7.028;2022-09-09T12:57:24;21.30;79.00
913;DHT22;443;51.448;7.028;2022-09-09T12:59:52;21.30;79.30
913;DHT22;443;51.448;7.028;2022-09-09T13:02:21;21.30;78.90
913;DHT22;443;51.448;7.028;2022-09-09T13:04:49;21.30;79.20
913;DHT22;443;51.448;7.028;2022-09-09T13:07:17;21.20;77.60
913;DHT22;443;51.448;7.028;2022-09-09T13:09:46;21.20;77.90
913;DHT22;443;51.448;7.028;2022-09-09T13:12:16;21.20;77.90
913;DHT22;443;51.448;7.028;2022-09-09T13:14:45;21.20;79.00
913;DHT22;443;51.448;7.028;2022-09-09T13:17:20;21.20;78.30
913;DHT22;443;51.448;7.028;2022-09-09T13:19:48;21.20;78.80
913;DHT22;443;51.448;7.028;2022-09-09T13:22:29;21.20;79.00
913;DHT22;443;51.448;7.028;2022-09-09T13:25:01;21.20;78.90
913;DHT22;443;51.448;7.028;2022-09-09T13:27:31;21.20;79.80
913;DHT22;443;51.448;7.028;2022-09-09T13:29:59;21.20;79.00
913;DHT22;443;51.448;7.028;2022-09-09T13:32:27;21.20;79.60
913;DHT22;443;51.448;7.028;2022-09-09T13:34:56;21.10;78.20
913;DHT22;443;51.448;7.028;2022-09-09T13:37:25;21.10;78.00
913;DHT22;443;51.448;7.028;2022-09-09T13:39:53;21.10;79.20
913;DHT22;443;51.448;7.028;2022-09-09T13:42:26;21.10;77.80
913;DHT22;443;51.448;7.028;2022-09-09T13:44:55;21.10;79.10
913;DHT22;443;51.448;7.028;2022-09-09T13:47:29;21.10;79.00
913;DHT22;443;51.448;7.028;2022-09-09T13:49:56;21.10;78.00
913;DHT22;443;51.448;7.028;2022-09-09T13:52:23;21.10;80.00
913;DHT22;443;51.448;7.028;2022-09-09T13:54:52;21.00;79.50
913;DHT22;443;51.448;7.028;2022-09-09T13:57:21;21.10;79.50
913;DHT22;443;51.448;7.028;2022-09-09T13:59:52;21.10;79.50
913;DHT22;443;51.448;7.028;2022-09-09T14:02:20;21.10;78.70
913;DHT22;443;51.448;7.028;2022-09-09T14:04:48;21.20;80.10
913;DHT22;443;51.448;7.028;2022-09-09T14:07:17;21.20;79.70
913;DHT22;443;51.448;7.028;2022-09-09T14:09:45;21.30;79.50
913;DHT22;443;51.448;7.028;2022-09-09T14:12:15;21.30;79.40
913;DHT22;443;51.448;7.028;2022-09-09T14:14:43;21.40;79.50
913;DHT22;443;51.448;7.028;2022-09-09T14:17:11;21.40;79.70
913;DHT22;443;51.448;7.028;2022-09-09T14:19:39;21.40;79.40
913;DHT22;443;51.448;7.028;2022-09-09T14:22:06;21.40;79.30
913;DHT22;443;51.448;7.028;2022-09-09T14:24:32;21.40;79.70
913;DHT22;443;51.448;7.028;2022-09-09T14:26:59;21.30;79.70
913;DHT22;443;51.448;7.028;2022-09-09T14:29:26;21.30;79.60
913;DHT22;443;51.448;7.028;2022-09-09T14:31:53;21.30;79.80
913;DHT22;443;51.448;7.028;2022-09-09T14:34:21;21.30;80.10
913;DHT22;443;51.448;7.028;2022-09-09T14:36:47;21.30;79.70
913;DHT22;443;51.448;7.028;2022-09-09T14:39:15;21.30;79.90
913;DHT22;443;51.448;7.028;2022-09-09T14:41:41;21.30;79.90
913;DHT22;443;51.448;7.028;2022-09-09T14:44:08;21.30;80.10
913;DHT22;443;51.448;7.028;2022-09-09T14:46:35;21.30;80.00
913;DHT22;443;51.448;7.028;2022-09-09T14:49:02;21.50;79.40
913;DHT22;443;51.448;7.028;2022-09-09T14:51:31;21.70;78.80
913;DHT22;443;51.448;7.028;2022-09-09T14:53:59;21.60;79.00
913;DHT22;443;51.448;7.028;2022-09-09T14:56:28;21.60;78.90
913;DHT22;443;51.448;7.028;2022-09-09T14:58:57;21.50;79.60
913;DHT22;443;51.448;7.028;2022-09-09T15:01:26;21.40;79.80
913;DHT22;443;51.448;7.028;2022-09-09T15:03:54;21.40;79.90
913;DHT22;443;51.448;7.028;2022-09-09T15:06:22;21.40;80.00
913;DHT22;443;51.448;7.028;2022-09-09T15:08:52;21.30;80.00
913;DHT22;443;51.448;7.028;2022-09-09T15:11:20;21.20;80.00
913;DHT22;443;51.448;7.028;2022-09-09T15:13:51;21.10;79.90
913;DHT22;443;51.448;7.028;2022-09-09T15:16:19;21.10;79.10
913;DHT22;443;51.448;7.028;2022-09-09T15:18:46;21.00;78.00
913;DHT22;443;51.448;7.028;2022-09-09T15:21:18;21.00;78.40
913;DHT22;443;51.448;7.028;2022-09-09T15:23:45;21.00;79.50
913;DHT22;443;51.448;7.028;2022-09-09T15:26:15;21.00;78.90
913;DHT22;443;51.448;7.028;2022-09-09T15:28:43;20.90;79.90
913;DHT22;443;51.448;7.028;2022-09-09T15:31:17;20.90;78.70
913;DHT22;443;51.448;7.028;2022-09-09T15:33:47;20.90;78.90
913;DHT22;443;51.448;7.028;2022-09-09T15:36:16;20.90;79.30
913;DHT22;443;51.448;7.028;2022-09-09T15:38:43;20.90;80.60
913;DHT22;443;51.448;7.028;2022-09-09T15:41:10;20.90;81.20
913;DHT22;443;51.448;7.028;2022-09-09T15:43:42;20.80;80.00
913;DHT22;443;51.448;7.028;2022-09-09T15:46:23;20.80;80.80
913;DHT22;443;51.448;7.028;2022-09-09T15:48:54;20.80;81.30
913;DHT22;443;51.448;7.028;2022-09-09T15:51:22;20.80;81.30
913;DHT22;443;51.448;7.028;2022-09-09T15:53:54;20.80;81.20
913;DHT22;443;51.448;7.028;2022-09-09T15:56:21;20.80;81.60
913;DHT22;443;51.448;7.028;2022-09-09T15:58:49;20.90;81.50
913;DHT22;443;51.448;7.028;2022-09-09T16:01:17;20.80;81.70
913;DHT22;443;51.448;7.028;2022-09-09T16:03:45;20.80;81.40
913;DHT22;443;51.448;7.028;2022-09-09T16:06:13;20.90;81.90
913;DHT22;443;51.448;7.028;2022-09-09T16:08:43;20.80;81.10
913;DHT22;443;51.448;7.028;2022-09-09T16:11:11;20.80;81.70
913;DHT22;443;51.448;7.028;2022-09-09T16:13:40;20.80;81.90
913;DHT22;443;51.448;7.028;2022-09-09T16:16:10;20.70;81.40
913;DHT22;443;51.448;7.028;2022-09-09T16:18:40;20.70;81.80
913;DHT22;443;51.448;7.028;2022-09-09T16:21:07;20.70;82.10
913;DHT22;443;51.448;7.028;2022-09-09T16:23:36;20.70;81.70
913;DHT22;443;51.448;7.028;2022-09-09T16:26:03;20.70;81.80
913;DHT22;443;51.448;7.028;2022-09-09T16:28:30;20.60;82.00
913;DHT22;443;51.448;7.028;2022-09-09T16:30:57;20.60;81.40
913;DHT22;443;51.448;7.028;2022-09-09T16:33:25;20.60;81.70
913;DHT22;443;51.448;7.028;2022-09-09T16:35:52;20.60;81.90
913;DHT22;443;51.448;7.028;2022-09-09T16:38:20;20.60;82.60
913;DHT22;443;51.448;7.028;2022-09-09T16:40:46;20.60;82.50
913;DHT22;443;51.448;7.028;2022-09-09T16:43:15;20.60;82.30
913;DHT22;443;51.448;7.028;2022-09-09T16:45:43;20.60;81.40
913;DHT22;443;51.448;7.028;2022-09-09T16:48:09;20.60;81.30
913;DHT22;443;51.448;7.028;2022-09-09T16:50:38;20.60;82.20
913;DHT22;443;51.448;7.028;2022-09-09T16:53:05;20.60;82.20
913;DHT22;443;51.448;7.028;2022-09-09T16:55:38;20.70;83.10
913;DHT22;443;51.448;7.028;2022-09-09T16:58:05;20.60;82.40
913;DHT22;443;51.448;7.028;2022-09-09T17:00:32;20.60;82.50
913;DHT22;443;51.448;7.028;2022-09-09T17:02:59;20.60;81.60
913;DHT22;443;51.448;7.028;2022-09-09T17:05:26;20.60;81.10